Fort Dodge Regional Airport Fort Dodge US
ICAO: KFOD
IATA: FOD
Category: Medium
Scheduled Services: Yes

Elevation: 1156 ft
TransAlt. 18000 ft.

Airport Communications:
AWOS 3:118.775
MINNEAPOLIS CNTR:134
RDO:122.3
CTAF/UNICOM:122.95

KFOD Zoom In..

If you have problems with the map follow the link
https://www.worldairports.se/pages/airport.php?
ICAO=KFOD

Runways:

(A) RW 06 length 6547 ft width 150 ft
ILS 109.10 / hdg 63

(B) RW 12 length 5301 ft width 100 ft
---- / hdg 125

(C) RW 24 length 6547 ft width 150 ft
---- / hdg 243

(D) RW 30 length 5301 ft width 100 ft
---- / hdg 305

Location; KFOD
Day. 16 / Time. 00.56 Zulu
* Altimeter: 30.08
* Temperature: -08° c. -17.6°f.
* Wind from: 140° Speed 03 kn.
Dewpoint: -11° c.
Visibility: 10 Statute Miles.
Clouds: Overcast 4600 ft.

KFOD 160056Z AUTO 14003KT 10SM OVC046 M08/M11 A3008 RMK AO2 SNE10 SLP242 P0000 T10831111 FZRANO


Wind From 140°
Speed 03 kn.

 
 
jpsmedia worldairports.se 2019   terms of use